createdAt,value
2023-03-15T00:01:52.089Z,0.70
2023-03-15T00:03:55.413Z,0.40
2023-03-15T00:05:58.100Z,0.75
2023-03-15T00:08:04.412Z,0.80
2023-03-15T00:10:07.844Z,0.70
2023-03-15T00:12:12.363Z,0.88
2023-03-15T00:14:15.518Z,0.75
2023-03-15T00:16:18.724Z,0.80
2023-03-15T00:18:21.447Z,1.05
2023-03-15T00:20:24.090Z,0.73
2023-03-15T00:22:27.050Z,1.10
2023-03-15T00:24:29.582Z,0.70
2023-03-15T00:26:32.206Z,0.90
2023-03-15T00:28:34.818Z,0.40
2023-03-15T00:30:37.512Z,0.85
2023-03-15T00:32:40.188Z,0.77
2023-03-15T00:34:49.138Z,0.60
2023-03-15T00:36:53.778Z,0.98
2023-03-15T00:38:56.962Z,0.85
2023-03-15T00:41:10.997Z,0.57
2023-03-15T00:43:18.033Z,0.80
2023-03-15T00:45:22.054Z,1.10
2023-03-15T00:47:24.810Z,1.05
2023-03-15T00:49:27.373Z,0.88
2023-03-15T00:51:30.465Z,0.93
2023-03-15T00:53:33.632Z,0.95
2023-03-15T00:55:36.201Z,0.80
2023-03-15T00:57:39.226Z,0.73
2023-03-15T00:59:41.962Z,1.35
2023-03-15T01:01:45.153Z,0.50
2023-03-15T01:03:48.229Z,0.88
2023-03-15T01:05:50.790Z,0.82
2023-03-15T01:07:53.639Z,0.60
2023-03-15T01:09:56.325Z,0.73
2023-03-15T01:11:59.246Z,0.68
2023-03-15T01:14:03.836Z,0.82
2023-03-15T01:16:07.140Z,0.70
2023-03-15T01:18:09.741Z,0.50
2023-03-15T01:20:15.591Z,0.73
2023-03-15T01:22:19.497Z,1.08
2023-03-15T01:24:22.195Z,0.90
2023-03-15T01:26:25.017Z,0.60
2023-03-15T01:28:28.231Z,0.63
2023-03-15T01:30:30.823Z,0.65
2023-03-15T01:32:33.616Z,0.85
2023-03-15T01:34:36.733Z,0.80
2023-03-15T01:36:39.391Z,0.77
2023-03-15T01:38:42.217Z,0.95
2023-03-15T01:40:46.327Z,0.70
2023-03-15T01:43:14.920Z,0.65
2023-03-15T01:46:05.718Z,0.68
2023-03-15T01:48:08.465Z,0.90
2023-03-15T01:50:11.736Z,0.75
2023-03-15T01:52:19.979Z,0.73
2023-03-15T01:54:40.171Z,0.80
2023-03-15T01:56:48.738Z,0.90
2023-03-15T01:58:53.965Z,0.88
2023-03-15T02:00:56.601Z,0.60
2023-03-15T02:03:09.108Z,1.10
2023-03-15T02:05:13.552Z,0.75
2023-03-15T02:07:19.070Z,1.00
2023-03-15T02:09:22.317Z,0.80
2023-03-15T02:11:26.504Z,0.70
2023-03-15T02:13:31.059Z,0.60
2023-03-15T02:15:33.749Z,0.73
2023-03-15T02:17:38.917Z,0.70
2023-03-15T02:19:50.356Z,0.80
2023-03-15T02:22:12.277Z,0.70
2023-03-15T02:24:20.861Z,0.73
2023-03-15T02:26:44.760Z,0.85
2023-03-15T02:28:48.089Z,0.80
2023-03-15T02:30:51.334Z,0.75
2023-03-15T02:32:54.000Z,0.70
2023-03-15T02:34:56.678Z,0.80
2023-03-15T02:36:59.164Z,0.80
2023-03-15T02:39:02.555Z,1.13
2023-03-15T02:41:06.121Z,1.42
2023-03-15T02:43:20.420Z,0.70
2023-03-15T02:45:24.469Z,0.73
2023-03-15T02:47:32.862Z,0.75
2023-03-15T02:49:42.924Z,0.85
2023-03-15T02:51:45.534Z,0.57
2023-03-15T02:53:48.479Z,0.57
2023-03-15T02:55:52.036Z,0.93
2023-03-15T02:57:54.671Z,0.90
2023-03-15T02:59:57.507Z,0.90
2023-03-15T03:02:00.096Z,0.60
2023-03-15T03:04:03.004Z,0.40
2023-03-15T03:06:05.864Z,0.40
2023-03-15T03:08:08.488Z,0.73
2023-03-15T03:10:16.314Z,0.82
2023-03-15T03:12:18.871Z,0.75
2023-03-15T03:14:24.095Z,0.70
2023-03-15T03:16:26.771Z,0.60
2023-03-15T03:18:30.505Z,0.57
2023-03-15T03:20:33.701Z,0.63
2023-03-15T03:22:37.743Z,0.60
2023-03-15T03:24:46.298Z,1.10
2023-03-15T03:26:48.958Z,0.50
2023-03-15T03:28:51.464Z,1.10
2023-03-15T03:30:55.389Z,0.63
2023-03-15T03:32:58.147Z,0.55
2023-03-15T03:35:00.801Z,0.70
2023-03-15T03:37:03.643Z,0.85
2023-03-15T03:39:06.197Z,0.57
2023-03-15T03:41:10.942Z,0.68
2023-03-15T03:43:13.719Z,0.82
2023-03-15T03:45:16.360Z,0.50
2023-03-15T03:47:19.064Z,0.70
2023-03-15T03:49:21.771Z,0.70
2023-03-15T03:51:24.348Z,0.57
2023-03-15T03:53:26.963Z,0.68
2023-03-15T03:55:29.539Z,2.05
2023-03-15T03:57:32.116Z,0.75
2023-03-15T03:59:34.675Z,0.73
2023-03-15T04:01:37.363Z,0.60
2023-03-15T04:03:39.910Z,0.60
2023-03-15T04:05:42.575Z,0.65
2023-03-15T04:07:45.115Z,0.82
2023-03-15T04:09:47.630Z,0.55
2023-03-15T04:11:50.199Z,0.82
2023-03-15T04:13:53.922Z,0.60
2023-03-15T04:16:01.531Z,1.00
2023-03-15T04:18:06.050Z,0.80
2023-03-15T04:20:12.123Z,0.73
2023-03-15T04:22:15.597Z,0.88
2023-03-15T04:24:18.277Z,1.13
2023-03-15T04:26:20.917Z,0.85
2023-03-15T04:28:23.697Z,1.17
2023-03-15T04:30:27.376Z,0.60
2023-03-15T04:32:29.975Z,0.60
2023-03-15T04:34:32.629Z,0.63
2023-03-15T04:36:35.420Z,0.88
2023-03-15T04:38:37.976Z,0.57
2023-03-15T04:40:42.949Z,0.60
2023-03-15T04:42:45.546Z,1.20
2023-03-15T04:44:48.287Z,0.80
2023-03-15T04:46:52.273Z,0.85
2023-03-15T04:48:54.935Z,0.70
2023-03-15T04:50:57.850Z,0.80
2023-03-15T04:53:00.968Z,0.63
2023-03-15T04:55:03.574Z,0.45
2023-03-15T04:57:06.374Z,0.40
2023-03-15T04:59:10.841Z,0.50
2023-03-15T05:01:13.754Z,0.88
2023-03-15T05:03:16.669Z,0.70
2023-03-15T05:05:19.496Z,0.60
2023-03-15T05:07:22.391Z,0.80
2023-03-15T05:09:25.030Z,0.73
2023-03-15T05:11:27.976Z,0.70
2023-03-15T05:13:31.978Z,0.88
2023-03-15T05:15:36.368Z,0.80
2023-03-15T05:17:39.006Z,0.98
2023-03-15T05:19:42.681Z,1.02
2023-03-15T05:21:45.314Z,0.82
2023-03-15T05:23:48.053Z,0.88
2023-03-15T05:25:55.591Z,0.88
2023-03-15T05:27:58.473Z,1.13
2023-03-15T05:30:05.104Z,0.77
2023-03-15T05:32:07.939Z,0.82
2023-03-15T05:34:12.347Z,0.95
2023-03-15T05:36:15.533Z,0.73
2023-03-15T05:38:18.162Z,0.85
2023-03-15T05:40:20.790Z,0.80
2023-03-15T05:42:26.396Z,1.10
2023-03-15T05:44:29.094Z,0.70
2023-03-15T05:46:32.521Z,1.10
2023-03-15T05:48:35.068Z,0.85
2023-03-15T05:50:37.660Z,0.52
2023-03-15T05:52:41.135Z,1.27
2023-03-15T05:54:43.955Z,1.27
2023-03-15T05:56:46.627Z,1.10
2023-03-15T05:58:49.278Z,1.08
2023-03-15T06:00:51.850Z,0.60
2023-03-15T06:02:54.553Z,0.90
2023-03-15T06:04:57.099Z,0.80
2023-03-15T06:06:59.684Z,0.90
2023-03-15T06:09:02.469Z,0.68
2023-03-15T06:11:05.070Z,0.93
2023-03-15T06:13:07.910Z,1.00
2023-03-15T06:15:11.217Z,0.95
2023-03-15T06:17:13.841Z,1.33
2023-03-15T06:19:16.459Z,1.25
2023-03-15T06:21:19.187Z,0.73
2023-03-15T06:23:21.991Z,0.88
2023-03-15T06:25:24.973Z,0.70
2023-03-15T06:27:29.177Z,1.13
2023-03-15T06:29:31.992Z,1.17
2023-03-15T06:31:35.485Z,1.30
2023-03-15T06:33:38.837Z,1.25
2023-03-15T06:35:41.651Z,1.27
2023-03-15T06:37:44.494Z,1.17
2023-03-15T06:39:47.057Z,0.98
2023-03-15T06:41:49.858Z,1.38
2023-03-15T06:43:52.513Z,1.35
2023-03-15T06:45:56.201Z,1.20
2023-03-15T06:47:58.825Z,1.65
2023-03-15T06:50:01.372Z,1.45
2023-03-15T06:52:06.912Z,1.25
2023-03-15T06:54:09.615Z,1.13
2023-03-15T06:56:12.264Z,1.00
2023-03-15T06:58:15.065Z,0.95
2023-03-15T07:00:18.277Z,0.90
2023-03-15T07:02:22.252Z,1.00
2023-03-15T07:04:25.172Z,1.40
2023-03-15T07:06:29.375Z,1.48
2023-03-15T07:08:32.178Z,1.80
2023-03-15T07:10:34.976Z,1.30
2023-03-15T07:12:38.209Z,1.02
2023-03-15T07:14:40.861Z,1.13
2023-03-15T07:16:43.596Z,0.70
2023-03-15T07:18:46.436Z,1.65
2023-03-15T07:20:59.579Z,1.33
2023-03-15T07:23:02.548Z,1.40
2023-03-15T07:25:07.607Z,1.10
2023-03-15T07:27:15.661Z,1.30
2023-03-15T07:29:19.330Z,1.23
2023-03-15T07:31:22.469Z,0.70
2023-03-15T07:33:26.249Z,0.88
2023-03-15T07:35:28.882Z,0.98
2023-03-15T07:37:31.600Z,0.80
2023-03-15T07:39:34.303Z,1.23
2023-03-15T07:41:36.970Z,1.05
2023-03-15T07:43:39.859Z,0.90
2023-03-15T07:45:42.732Z,0.88
2023-03-15T07:47:45.323Z,1.63
2023-03-15T07:49:47.933Z,0.95
2023-03-15T07:51:50.538Z,0.65
2023-03-15T07:53:54.321Z,0.88
2023-03-15T07:55:56.972Z,1.05
2023-03-15T07:57:59.829Z,1.20
2023-03-15T08:00:02.503Z,1.02
2023-03-15T08:02:07.029Z,1.38
2023-03-15T08:04:09.752Z,1.27
2023-03-15T08:06:12.328Z,1.10
2023-03-15T08:08:14.950Z,0.90
2023-03-15T08:10:18.562Z,0.98
2023-03-15T08:12:21.207Z,1.15
2023-03-15T08:14:24.776Z,1.50
2023-03-15T08:16:27.552Z,1.25
2023-03-15T08:18:30.354Z,1.00
2023-03-15T08:20:34.059Z,1.13
2023-03-15T08:22:38.443Z,0.93
2023-03-15T08:24:41.474Z,1.02
2023-03-15T08:26:44.123Z,1.15
2023-03-15T08:28:46.754Z,0.80
2023-03-15T08:30:49.384Z,1.20
2023-03-15T08:32:52.799Z,0.88
2023-03-15T08:34:55.537Z,0.63
2023-03-15T08:36:58.118Z,0.80
2023-03-15T08:39:00.754Z,1.13
2023-03-15T08:41:03.823Z,1.00
2023-03-15T08:43:06.417Z,1.13
2023-03-15T08:45:09.807Z,1.10
2023-03-15T08:47:12.426Z,0.80
2023-03-15T08:49:15.092Z,0.90
2023-03-15T08:51:17.812Z,0.88
2023-03-15T08:53:20.462Z,0.70
2023-03-15T08:55:23.560Z,1.17
2023-03-15T08:57:26.756Z,1.30
2023-03-15T08:59:32.063Z,1.30
2023-03-15T09:01:35.224Z,1.23
2023-03-15T09:03:37.921Z,0.88
2023-03-15T09:05:40.558Z,1.00
2023-03-15T09:07:44.141Z,1.38
2023-03-15T09:09:48.378Z,0.80
2023-03-15T09:11:50.991Z,0.93
2023-03-15T09:13:53.587Z,0.93
2023-03-15T09:15:57.582Z,1.30
2023-03-15T09:18:00.175Z,0.80
2023-03-15T09:20:08.206Z,0.82
2023-03-15T09:22:17.270Z,1.27
2023-03-15T09:24:26.435Z,1.00
2023-03-15T09:26:29.033Z,0.90
2023-03-15T09:28:31.671Z,0.98
2023-03-15T09:30:35.728Z,0.95
2023-03-15T09:32:38.338Z,0.85
2023-03-15T09:34:42.376Z,0.70
2023-03-15T09:36:46.780Z,0.57
2023-03-15T09:38:50.318Z,0.70
2023-03-15T09:41:00.503Z,0.60
2023-03-15T09:43:14.138Z,0.88
2023-03-15T09:45:24.864Z,0.68
2023-03-15T09:47:41.022Z,0.70
2023-03-15T09:49:54.060Z,0.80
2023-03-15T09:52:09.225Z,0.98
2023-03-15T09:54:29.618Z,0.75
2023-03-15T09:56:37.112Z,0.93
2023-03-15T09:58:40.898Z,0.88
2023-03-15T10:00:54.521Z,1.23
2023-03-15T10:03:01.794Z,0.90
2023-03-15T10:05:11.213Z,0.57
2023-03-15T10:07:16.719Z,0.80
2023-03-15T10:09:23.100Z,0.80
2023-03-15T10:11:39.072Z,0.93
2023-03-15T10:13:53.595Z,0.93
2023-03-15T10:16:08.122Z,0.88
2023-03-15T10:18:34.248Z,1.27
2023-03-15T10:20:47.373Z,0.70
2023-03-15T10:23:20.659Z,0.75
2023-03-15T10:25:29.079Z,0.98
2023-03-15T10:27:31.600Z,0.70
2023-03-15T10:29:35.348Z,0.75
2023-03-15T10:31:44.821Z,0.93
2023-03-15T10:33:50.236Z,0.90
2023-03-15T10:35:58.616Z,1.02
2023-03-15T10:38:21.428Z,1.13
2023-03-15T10:40:50.152Z,1.10
2023-03-15T10:42:52.756Z,1.00
2023-03-15T10:44:55.997Z,1.63
2023-03-15T10:47:16.010Z,1.00
2023-03-15T10:49:22.804Z,1.10
2023-03-15T10:51:31.878Z,0.90
2023-03-15T10:53:34.849Z,1.20
2023-03-15T10:55:44.158Z,0.93
2023-03-15T10:58:00.095Z,1.25
2023-03-15T11:00:10.424Z,0.88
2023-03-15T11:02:12.962Z,0.88
2023-03-15T11:04:17.467Z,0.60
2023-03-15T11:06:26.315Z,1.08
2023-03-15T11:08:41.125Z,0.82
2023-03-15T11:10:45.603Z,0.77
2023-03-15T11:12:48.194Z,1.17
2023-03-15T11:14:53.902Z,0.90
2023-03-15T11:16:59.126Z,0.70
2023-03-15T11:19:03.777Z,0.75
2023-03-15T11:21:11.433Z,0.80
2023-03-15T11:23:18.391Z,0.80
2023-03-15T11:25:31.963Z,0.70
2023-03-15T11:27:35.071Z,0.77
2023-03-15T11:29:40.354Z,1.10
2023-03-15T11:31:43.022Z,0.70
2023-03-15T11:33:51.312Z,0.60
2023-03-15T11:35:57.712Z,0.63
2023-03-15T11:38:33.576Z,0.60
2023-03-15T11:40:51.787Z,0.43
2023-03-15T11:43:26.123Z,0.60
2023-03-15T11:45:37.274Z,0.55
2023-03-15T11:48:04.467Z,0.77
2023-03-15T11:50:07.666Z,1.13
2023-03-15T11:52:10.997Z,0.70
2023-03-15T11:54:19.902Z,0.60
2023-03-15T11:56:46.359Z,0.90
2023-03-15T11:59:13.318Z,0.60
2023-03-15T12:01:26.726Z,0.60
2023-03-15T12:03:34.541Z,0.55
2023-03-15T12:06:05.246Z,0.82
2023-03-15T12:08:40.859Z,0.32
2023-03-15T12:10:49.905Z,0.60
2023-03-15T12:13:05.931Z,0.50
2023-03-15T12:15:20.415Z,1.20
2023-03-15T12:17:28.529Z,0.70
2023-03-15T12:19:34.475Z,0.80
2023-03-15T12:22:15.393Z,0.82
2023-03-15T12:24:31.011Z,0.47
2023-03-15T12:26:48.796Z,0.70
2023-03-15T12:29:04.217Z,0.60
2023-03-15T12:31:14.767Z,0.35
2023-03-15T12:33:20.920Z,0.77
2023-03-15T12:35:29.467Z,0.65
2023-03-15T12:37:43.806Z,0.43
2023-03-15T12:39:59.382Z,0.60
2023-03-15T12:42:01.929Z,0.98
2023-03-15T12:44:38.969Z,0.70
2023-03-15T12:46:41.662Z,0.50
2023-03-15T12:49:07.053Z,1.10
2023-03-15T12:51:14.748Z,0.55
2023-03-15T12:53:37.278Z,0.50
2023-03-15T12:55:40.865Z,0.55
2023-03-15T12:57:50.746Z,0.65
2023-03-15T12:59:59.801Z,0.70
2023-03-15T13:02:08.844Z,0.60
2023-03-15T13:04:13.666Z,0.75
2023-03-15T13:06:50.166Z,0.85
2023-03-15T13:09:46.053Z,0.88
2023-03-15T13:12:01.965Z,0.70
2023-03-15T13:14:27.953Z,0.80
2023-03-15T13:17:02.616Z,0.40
2023-03-15T13:19:14.453Z,0.93
2023-03-15T13:21:26.683Z,1.10
2023-03-15T13:23:32.521Z,0.57
2023-03-15T13:25:56.258Z,1.00
2023-03-15T13:28:16.978Z,0.65
2023-03-15T13:30:35.070Z,0.82
2023-03-15T13:32:37.946Z,0.73
2023-03-15T13:34:41.778Z,0.95
2023-03-15T13:36:47.496Z,1.13
2023-03-15T13:38:52.816Z,0.60
2023-03-15T13:40:57.691Z,1.20
2023-03-15T13:43:02.180Z,1.17
2023-03-15T13:45:07.745Z,1.10
2023-03-15T13:47:22.087Z,1.10
2023-03-15T13:49:25.405Z,0.73
2023-03-15T13:51:36.615Z,1.30
2023-03-15T13:53:49.593Z,1.00
2023-03-15T13:55:54.747Z,1.13
2023-03-15T13:58:04.596Z,1.75
2023-03-15T14:00:19.278Z,1.17
2023-03-15T14:02:21.726Z,1.02
2023-03-15T14:04:26.142Z,1.02
2023-03-15T14:06:30.091Z,1.10
2023-03-15T14:08:38.688Z,1.08
2023-03-15T14:10:41.649Z,1.00
2023-03-15T14:12:45.279Z,1.45
2023-03-15T14:14:54.490Z,1.00
2023-03-15T14:17:05.227Z,1.48
2023-03-15T14:19:24.173Z,1.38
2023-03-15T14:21:32.314Z,1.52
2023-03-15T14:23:43.658Z,1.40
2023-03-15T14:26:02.033Z,1.20
2023-03-15T14:28:06.428Z,1.30
2023-03-15T14:30:22.674Z,1.20
2023-03-15T14:32:36.923Z,1.20
2023-03-15T14:34:48.614Z,1.35
2023-03-15T14:36:54.332Z,1.40
2023-03-15T14:38:59.034Z,1.30
2023-03-15T14:41:25.751Z,1.23
2023-03-15T14:43:28.362Z,1.63
2023-03-15T14:45:33.676Z,1.40
2023-03-15T14:47:55.088Z,1.30
2023-03-15T14:54:04.303Z,1.40
2023-03-15T14:56:07.274Z,1.60
2023-03-15T14:58:15.278Z,1.20
2023-03-15T15:00:20.797Z,1.20
2023-03-15T15:02:23.458Z,1.30
2023-03-15T15:04:32.377Z,1.45
2023-03-15T15:06:36.926Z,1.23
2023-03-15T15:08:42.452Z,1.58
2023-03-15T15:10:47.139Z,1.42
2023-03-15T15:12:56.364Z,1.38
2023-03-15T15:15:20.682Z,1.45
2023-03-15T15:17:23.640Z,1.63
2023-03-15T15:19:26.258Z,1.20
2023-03-15T15:21:33.827Z,0.85
2023-03-15T15:23:54.840Z,1.20
2023-03-15T15:26:05.749Z,0.90
2023-03-15T15:28:09.052Z,0.95
2023-03-15T15:30:21.354Z,1.15
2023-03-15T15:32:23.919Z,0.85
2023-03-15T15:34:26.387Z,1.00
2023-03-15T15:36:32.822Z,1.00
2023-03-15T15:38:39.059Z,0.60
2023-03-15T15:40:41.790Z,0.70
2023-03-15T15:42:45.321Z,1.23
2023-03-15T15:44:48.026Z,0.80
2023-03-15T15:46:50.721Z,0.80
2023-03-15T15:48:53.478Z,0.80
2023-03-15T15:50:56.041Z,0.73
2023-03-15T15:52:59.793Z,0.90
2023-03-15T15:55:02.583Z,1.52
2023-03-15T15:57:06.816Z,0.82
2023-03-15T15:59:13.530Z,0.77
2023-03-15T16:01:16.989Z,0.60
2023-03-15T16:03:19.535Z,0.77
2023-03-15T16:05:24.342Z,0.55
2023-03-15T16:07:26.867Z,1.15
2023-03-15T16:09:33.754Z,0.60
2023-03-15T16:11:36.369Z,0.75
2023-03-15T16:13:39.019Z,0.47
2023-03-15T16:15:41.634Z,0.75
2023-03-15T16:17:45.363Z,0.75
2023-03-15T16:19:48.545Z,0.85
2023-03-15T16:21:54.520Z,0.50
2023-03-15T16:24:04.014Z,0.50
2023-03-15T16:26:06.633Z,0.60
2023-03-15T16:28:10.209Z,0.45
2023-03-15T16:30:27.196Z,0.80
2023-03-15T16:32:43.456Z,0.60
2023-03-15T16:34:54.733Z,0.82
2023-03-15T16:36:57.299Z,0.50
2023-03-15T16:38:59.871Z,0.57
2023-03-15T16:41:02.432Z,0.85
2023-03-15T16:43:06.417Z,0.60
2023-03-15T16:45:13.254Z,0.80
2023-03-15T16:47:15.849Z,0.70
2023-03-15T16:49:18.425Z,0.30
2023-03-15T16:51:20.905Z,0.55
2023-03-15T16:53:25.421Z,0.40
2023-03-15T16:55:30.338Z,0.65
2023-03-15T16:57:33.252Z,0.52
2023-03-15T16:59:35.801Z,0.60
2023-03-15T17:01:38.573Z,0.60
2023-03-15T17:03:41.074Z,0.35
2023-03-15T17:05:47.153Z,0.60
2023-03-15T17:07:53.534Z,0.40
2023-03-15T17:09:56.541Z,0.38
2023-03-15T17:11:58.991Z,0.45
2023-03-15T17:14:01.715Z,0.50
2023-03-15T17:16:04.327Z,0.75
2023-03-15T17:18:18.289Z,0.40
2023-03-15T17:20:22.428Z,0.50
2023-03-15T17:22:26.085Z,0.40
2023-03-15T17:24:28.664Z,0.40
2023-03-15T17:26:32.021Z,0.98
2023-03-15T17:28:34.686Z,0.30
2023-03-15T17:30:38.152Z,0.43
2023-03-15T17:32:41.655Z,0.20
2023-03-15T17:34:47.343Z,0.40
2023-03-15T17:36:50.014Z,0.68
2023-03-15T17:38:54.164Z,0.30
2023-03-15T17:40:57.063Z,0.60
2023-03-15T17:43:02.303Z,0.35
2023-03-15T17:45:18.590Z,0.50
2023-03-15T17:47:21.178Z,0.40
2023-03-15T17:49:23.678Z,0.22
2023-03-15T17:51:28.880Z,0.38
2023-03-15T17:53:31.687Z,0.93
2023-03-15T17:55:35.169Z,0.40
2023-03-15T17:57:40.464Z,1.27
2023-03-15T17:59:45.379Z,0.35
2023-03-15T18:01:49.047Z,0.40
2023-03-15T18:03:51.895Z,0.40
2023-03-15T18:05:54.555Z,0.22
2023-03-15T18:07:59.369Z,0.52
2023-03-15T18:10:02.570Z,0.70
2023-03-15T18:12:05.486Z,0.20
2023-03-15T18:14:15.476Z,0.75
2023-03-15T18:16:18.830Z,0.30
2023-03-15T18:18:21.636Z,0.22
2023-03-15T18:20:24.380Z,0.50
2023-03-15T18:22:27.022Z,0.30
2023-03-15T18:24:29.645Z,0.50
2023-03-15T18:26:32.198Z,0.35
2023-03-15T18:28:34.861Z,0.20
2023-03-15T18:30:37.566Z,0.28
2023-03-15T18:32:40.273Z,0.38
2023-03-15T18:34:42.868Z,0.47
2023-03-15T18:36:45.870Z,0.40
2023-03-15T18:38:48.497Z,0.43
2023-03-15T18:40:51.944Z,0.50
2023-03-15T18:42:56.265Z,0.47
2023-03-15T18:44:58.829Z,0.43
2023-03-15T18:47:02.330Z,0.60
2023-03-15T18:49:05.554Z,0.32
2023-03-15T18:51:12.333Z,0.43
2023-03-15T18:53:15.272Z,0.40
2023-03-15T18:55:19.502Z,0.40
2023-03-15T18:57:22.013Z,0.85
2023-03-15T18:59:25.887Z,0.50
2023-03-15T19:01:29.194Z,0.47
2023-03-15T19:03:31.960Z,0.68
2023-03-15T19:05:37.345Z,0.40
2023-03-15T19:07:41.076Z,0.80
2023-03-15T19:09:44.806Z,0.90
2023-03-15T19:11:47.388Z,0.55
2023-03-15T19:13:51.569Z,0.47
2023-03-15T19:15:55.970Z,0.93
2023-03-15T19:17:59.338Z,0.88
2023-03-15T19:20:01.916Z,0.70
2023-03-15T19:22:04.761Z,0.57
2023-03-15T19:24:07.619Z,0.40
2023-03-15T19:26:10.642Z,0.65
2023-03-15T19:28:14.522Z,0.38
2023-03-15T19:30:21.118Z,0.60
2023-03-15T19:32:25.166Z,0.63
2023-03-15T19:34:28.156Z,0.90
2023-03-15T19:36:31.630Z,0.60
2023-03-15T19:38:34.575Z,0.75
2023-03-15T19:40:37.344Z,0.68
2023-03-15T19:42:40.687Z,0.50
2023-03-15T19:44:43.867Z,0.95
2023-03-15T19:46:46.965Z,0.88
2023-03-15T19:48:49.469Z,0.70
2023-03-15T19:50:51.914Z,0.80
2023-03-15T19:52:54.407Z,0.80
2023-03-15T19:54:56.896Z,0.75
2023-03-15T19:56:59.926Z,1.30
2023-03-15T19:59:03.315Z,0.85
2023-03-15T20:01:06.093Z,1.00
2023-03-15T20:03:08.726Z,0.98
2023-03-15T20:05:13.584Z,0.68
2023-03-15T20:07:16.176Z,0.95
2023-03-15T20:09:18.746Z,0.90
2023-03-15T20:11:25.285Z,0.75
2023-03-15T20:13:28.322Z,0.65
2023-03-15T20:15:32.404Z,1.02
2023-03-15T20:17:34.959Z,0.80
2023-03-15T20:19:37.532Z,0.70
2023-03-15T20:21:40.035Z,0.88
2023-03-15T20:23:42.574Z,1.05
2023-03-15T20:25:45.384Z,0.98
2023-03-15T20:27:48.078Z,0.93
2023-03-15T20:29:51.983Z,1.02
2023-03-15T20:31:54.725Z,1.02
2023-03-15T20:33:57.489Z,0.75
2023-03-15T20:36:00.045Z,0.95
2023-03-15T20:38:06.846Z,0.60
2023-03-15T20:40:12.777Z,1.10
2023-03-15T20:42:15.349Z,1.02
2023-03-15T20:44:18.286Z,0.70
2023-03-15T20:46:22.735Z,1.10
2023-03-15T20:48:26.168Z,1.52
2023-03-15T20:50:28.786Z,1.00
2023-03-15T20:52:32.986Z,0.75
2023-03-15T20:54:36.793Z,0.95
2023-03-15T20:56:39.290Z,0.95
2023-03-15T20:58:42.096Z,1.20
2023-03-15T21:00:45.541Z,1.02
2023-03-15T21:02:48.422Z,1.02
2023-03-15T21:04:51.872Z,0.95
2023-03-15T21:07:04.289Z,0.90
2023-03-15T21:09:10.014Z,0.82
2023-03-15T21:11:12.770Z,0.65
2023-03-15T21:13:17.762Z,1.00
2023-03-15T21:15:24.328Z,0.82
2023-03-15T21:17:26.800Z,1.00
2023-03-15T21:19:29.714Z,0.70
2023-03-15T21:21:32.200Z,1.05
2023-03-15T21:23:35.598Z,1.15
2023-03-15T21:25:38.186Z,1.20
2023-03-15T21:27:40.730Z,0.98
2023-03-15T21:29:43.200Z,1.45
2023-03-15T21:31:45.751Z,0.82
2023-03-15T21:33:50.401Z,1.20
2023-03-15T21:35:54.150Z,1.20
2023-03-15T21:37:56.671Z,1.10
2023-03-15T21:39:59.132Z,1.35
2023-03-15T21:42:01.612Z,1.35
2023-03-15T21:44:05.025Z,1.13
2023-03-15T21:46:13.059Z,0.90
2023-03-15T21:48:15.767Z,1.17
2023-03-15T21:50:20.395Z,0.98
2023-03-15T21:52:26.317Z,1.23
2023-03-15T21:54:29.457Z,1.20
2023-03-15T21:56:32.104Z,1.92
2023-03-15T21:58:34.637Z,1.55
2023-03-15T22:00:38.286Z,1.13
2023-03-15T22:02:41.144Z,1.10
2023-03-15T22:04:44.072Z,1.42
2023-03-15T22:06:46.591Z,1.52
2023-03-15T22:08:50.517Z,1.15
2023-03-15T22:10:57.899Z,1.38
2023-03-15T22:13:00.412Z,1.05
2023-03-15T22:15:05.855Z,1.00
2023-03-15T22:17:08.998Z,1.50
2023-03-15T22:19:11.920Z,1.58
2023-03-15T22:21:14.494Z,1.20
2023-03-15T22:23:18.502Z,1.25
2023-03-15T22:25:21.176Z,1.40
2023-03-15T22:27:23.633Z,0.95
2023-03-15T22:29:26.123Z,1.00
2023-03-15T22:31:31.966Z,0.98
2023-03-15T22:33:34.508Z,0.88
2023-03-15T22:35:37.137Z,1.35
2023-03-15T22:37:40.395Z,1.15
2023-03-15T22:39:43.343Z,1.17
2023-03-15T22:41:45.837Z,1.13
2023-03-15T22:43:48.399Z,1.40
2023-03-15T22:45:50.892Z,1.40
2023-03-15T22:47:53.711Z,1.20
2023-03-15T22:49:56.252Z,1.10
2023-03-15T22:51:58.732Z,1.58
2023-03-15T22:54:02.128Z,1.52
2023-03-15T22:56:05.165Z,1.20
2023-03-15T22:58:07.685Z,1.48
2023-03-15T23:00:14.152Z,1.80
2023-03-15T23:02:16.795Z,1.38
2023-03-15T23:04:19.641Z,1.25
2023-03-15T23:06:22.325Z,1.50
2023-03-15T23:08:25.302Z,1.10
2023-03-15T23:10:28.304Z,1.60
2023-03-15T23:12:36.234Z,1.08
2023-03-15T23:14:39.865Z,1.17
2023-03-15T23:16:42.858Z,1.20
2023-03-15T23:18:45.498Z,0.90
2023-03-15T23:20:48.336Z,1.48
2023-03-15T23:22:51.597Z,2.25
2023-03-15T23:24:58.102Z,1.00
2023-03-15T23:27:03.625Z,1.00
2023-03-15T23:29:12.617Z,1.17
2023-03-15T23:31:15.196Z,1.38
2023-03-15T23:33:18.006Z,1.48
2023-03-15T23:35:20.711Z,1.10
2023-03-15T23:37:26.138Z,1.23
2023-03-15T23:39:29.815Z,1.15
2023-03-15T23:41:32.667Z,1.45
2023-03-15T23:43:35.172Z,1.10
2023-03-15T23:45:37.685Z,1.30
2023-03-15T23:47:40.280Z,1.17
2023-03-15T23:49:43.764Z,1.30
2023-03-15T23:51:46.251Z,1.10
2023-03-15T23:53:48.730Z,1.05
2023-03-15T23:55:52.397Z,1.33
2023-03-15T23:57:55.047Z,1.83
2023-03-15T23:59:57.574Z,1.95
